This is the latest recevied weather packets stored in our database for station/object N3LF. If no packets are shown the sender has not sent any weather packets the latest 10 day(s).
| Time | Temp. | Humidity | Pressure | Rain* | Wind** | Luminosity | Snow |
|---|---|---|---|---|---|---|---|
| 1787938081 | 29.44° C | 53% | 1021.6 hPa | 0 mm | - | 702 W/m² | - |
| 1787937776 | 28.89° C | 60% | 1021.6 hPa | 0 mm | - | 203 W/m² | - |
| 1787937472 | 29.44° C | 61% | 1021.5 hPa | 0 mm | - | 166 W/m² | - |
| 1787937169 | 31.11° C | 55% | 1021.5 hPa | 0 mm | - | 768 W/m² | - |
| 1787936863 | 31.11° C | 55% | 1021.6 hPa | 0 mm | - | 734 W/m² | - |
| 1787936563 | 30° C | 60% | 1021.8 hPa | 0 mm | - | 716 W/m² | - |
| 1787936262 | 30° C | 60% | 1021.8 hPa | 0 mm | - | 727 W/m² | - |
| 1787935958 | 30° C | 60% | 1021.7 hPa | 0 mm | - | 711 W/m² | - |
| 1787935658 | 30.56° C | 60% | 1021.6 hPa | 0 mm | - | 728 W/m² | - |
| 1787935355 | 29.44° C | 64% | 1021.5 hPa | 0 mm | - | 755 W/m² | - |
| 1787935050 | 29.44° C | 65% | 1021.7 hPa | 0 mm | - | 705 W/m² | - |
| 1787934745 | 28.89° C | 66% | 1021.7 hPa | 0 mm | - | 687 W/m² | - |
| 1787934445 | 28.33° C | 68% | 1021.8 hPa | 0 mm | - | 112 W/m² | - |
| 1787934140 | 28.89° C | 67% | 1021.8 hPa | 0 mm | - | 651 W/m² | - |
| 1787933838 | 28.89° C | 67% | 1022 hPa | 0 mm | - | 628 W/m² | - |
| 1787933533 | 28.89° C | 69% | 1021.9 hPa | 0 mm | - | 630 W/m² | - |
| 1787933228 | 28.89° C | 71% | 1021.8 hPa | 0 mm | - | 622 W/m² | - |
| 1787932922 | 28.89° C | 69% | 1021.9 hPa | 0 mm | - | 597 W/m² | - |
| 1787932621 | 28.33° C | 70% | 1021.9 hPa | 0 mm | - | 583 W/m² | - |
| 1787932321 | 28.33° C | 73% | 1021.9 hPa | 0 mm | - | 576 W/m² | - |
| 1787932016 | 28.89° C | 70% | 1021.9 hPa | 0 mm | - | 575 W/m² | - |
| 1787931715 | 27.78° C | 75% | 1021.8 hPa | 0 mm | - | 557 W/m² | - |
| 1787931414 | 27.78° C | 74% | 1021.9 hPa | 0 mm | - | 548 W/m² | - |
| 1787931109 | 28.33° C | 73% | 1021.8 hPa | 0 mm | - | 543 W/m² | - |
| 1787930809 | 27.78° C | 76% | 1022 hPa | 0 mm | - | 531 W/m² | - |
* Rain latest hour (hover to see other rain measurements)
** Current wind speed in m/s (hover to see current wind gust speed)